Time;durP1;ratioP1;P1;durP2;ratioP2;P2;SDS_P1;SDS_P2;PMS_P1;PMS_P2;Temp;Humidity;BMP_temperature;BMP_pressure;BME280_temperature;BME280_humidity;BME280_pressure;Samples;Min_cycle;Max_cycle;Signal;HPM_P1;HPM_P2
2022/06/02 00:02:32;;;;;;;22.30;17.95;;;20.60;99.90;;;;;;6215304;23;20024;-77
2022/06/02 00:04:57;;;;;;;27.77;17.95;;;20.60;99.90;;;;;;6188633;23;20332;-77
2022/06/02 00:08:00;;;;;;;22.02;17.83;;;20.60;99.90;;;;;;6215298;23;19997;-78
2022/06/02 00:10:51;;;;;;;23.33;18.48;;;20.50;99.90;;;;;;6215010;23;19996;-77
2022/06/02 00:13:28;;;;;;;22.15;18.42;;;20.50;99.90;;;;;;6188555;23;20310;-77
2022/06/02 00:16:00;;;;;;;22.60;17.60;;;20.50;99.90;;;;;;6215197;23;20001;-78
2022/06/02 00:18:31;;;;;;;24.38;19.25;;;20.50;99.90;;;;;;6214938;23;20078;-78
2022/06/02 00:21:22;;;;;;;23.55;19.10;;;20.50;99.90;;;;;;6215180;23;20000;-77
2022/06/02 00:24:06;;;;;;;22.40;18.25;;;20.40;99.90;;;;;;6188558;23;20004;-77
2022/06/02 00:27:10;;;;;;;20.25;16.65;;;20.40;99.90;;;;;;6188632;23;20009;-77
2022/06/02 00:29:50;;;;;;;22.05;17.63;;;20.40;99.90;;;;;;6213961;23;20380;-78
2022/06/02 00:32:24;;;;;;;23.88;18.13;;;20.30;99.90;;;;;;6215168;23;20055;-77
2022/06/02 00:35:12;;;;;;;21.90;17.98;;;20.30;99.90;;;;;;6215227;23;20028;-78
2022/06/02 00:37:50;;;;;;;29.15;18.30;;;20.30;99.90;;;;;;6188354;23;20023;-77
2022/06/02 00:40:17;;;;;;;24.25;17.88;;;20.30;99.90;;;;;;6215004;23;20336;-77
2022/06/02 00:43:15;;;;;;;25.08;18.33;;;20.30;99.90;;;;;;6215052;23;20007;-78
2022/06/02 00:45:43;;;;;;;26.70;19.13;;;20.30;99.90;;;;;;6215227;23;20072;-77
2022/06/02 00:48:09;;;;;;;29.05;18.50;;;20.20;99.90;;;;;;6214911;23;20001;-78
2022/06/02 00:50:53;;;;;;;23.23;18.80;;;20.20;99.90;;;;;;6215089;23;20010;-78
2022/06/02 00:53:40;;;;;;;23.30;18.30;;;20.20;99.90;;;;;;6188379;23;20018;-77
2022/06/02 00:59:52;;;;;;;22.33;17.63;;;20.20;99.90;;;;;;6214767;23;20015;-77
2022/06/02 01:02:18;;;;;;;21.60;18.05;;;20.20;99.90;;;;;;6215144;23;20000;-78
2022/06/02 01:04:44;;;;;;;22.50;18.58;;;20.20;99.90;;;;;;6214862;23;20354;-78
2022/06/02 01:07:24;;;;;;;23.55;19.67;;;20.20;99.90;;;;;;6215295;23;20005;-77
2022/06/02 01:10:14;;;;;;;22.80;18.80;;;20.10;99.90;;;;;;6216795;23;20345;-78
2022/06/02 01:13:00;;;;;;;25.42;19.35;;;20.10;99.90;;;;;;6215392;23;20149;-78
2022/06/02 01:15:52;;;;;;;25.77;19.73;;;20.10;99.90;;;;;;6216242;23;20043;-78
2022/06/02 01:18:45;;;;;;;25.48;19.92;;;20.20;99.90;;;;;;6216313;23;20019;-78
2022/06/02 01:21:16;;;;;;;26.00;19.67;;;20.20;99.90;;;;;;6216842;23;20055;-78
2022/06/02 01:24:02;;;;;;;25.23;20.38;;;20.20;99.90;;;;;;6216729;23;20375;-78
2022/06/02 01:26:30;;;;;;;27.48;20.02;;;20.20;99.90;;;;;;6216593;23;20004;-78
2022/06/02 01:29:05;;;;;;;26.63;19.65;;;20.20;99.90;;;;;;6216435;23;20460;-78
2022/06/02 01:32:00;;;;;;;28.58;20.02;;;20.20;99.90;;;;;;6216652;23;20370;-78
2022/06/02 01:34:26;;;;;;;28.30;20.65;;;20.10;99.90;;;;;;6215138;23;20005;-78
2022/06/02 01:36:58;;;;;;;27.52;21.38;;;20.10;99.90;;;;;;6216789;23;20012;-78
2022/06/02 01:39:42;;;;;;;27.90;20.92;;;20.10;99.90;;;;;;6216427;23;20083;-78
2022/06/02 01:42:17;;;;;;;25.35;20.90;;;20.10;99.90;;;;;;6216686;23;20050;-77
2022/06/02 01:44:56;;;;;;;26.35;20.42;;;20.10;99.90;;;;;;6215025;23;20036;-77
2022/06/02 01:47:43;;;;;;;22.20;18.85;;;20.00;99.90;;;;;;6216723;23;20007;-77
2022/06/02 01:50:53;;;;;;;23.55;19.02;;;20.00;99.90;;;;;;6216591;23;20383;-77
2022/06/02 01:53:33;;;;;;;23.38;19.95;;;20.00;99.90;;;;;;6145195;23;20007;-77
2022/06/02 01:56:16;;;;;;;23.52;19.52;;;19.90;99.90;;;;;;6216388;23;20001;-78
2022/06/02 01:59:15;;;;;;;29.48;21.13;;;20.00;99.90;;;;;;6216300;23;20016;-77
2022/06/02 02:02:05;;;;;;;30.95;21.35;;;20.00;99.90;;;;;;6216397;23;20007;-78
2022/06/02 02:04:57;;;;;;;28.92;20.95;;;20.00;99.90;;;;;;6216404;23;20003;-77
2022/06/02 02:07:41;;;;;;;29.73;21.98;;;20.00;99.90;;;;;;6205842;23;20012;-78
2022/06/02 02:10:12;;;;;;;32.15;21.90;;;20.00;99.90;;;;;;6216269;23;20000;-78
2022/06/02 02:12:57;;;;;;;27.80;22.38;;;19.90;99.90;;;;;;6216313;23;20027;-78
2022/06/02 02:15:55;;;;;;;29.35;21.25;;;19.90;99.90;;;;;;6216278;23;20436;-77
2022/06/02 02:19:11;;;;;;;27.70;22.02;;;19.90;99.90;;;;;;6215387;23;20008;-77
2022/06/02 02:21:59;;;;;;;27.58;22.30;;;19.90;99.90;;;;;;6165885;23;20004;-77
2022/06/02 02:24:34;;;;;;;29.70;23.15;;;19.80;99.90;;;;;;6214734;23;20000;-77
2022/06/02 02:27:16;;;;;;;31.30;22.80;;;19.80;99.90;;;;;;6216032;23;20011;-77
2022/06/02 02:30:00;;;;;;;29.58;21.98;;;19.80;99.90;;;;;;6216119;23;20333;-77
2022/06/02 02:32:57;;;;;;;29.90;22.40;;;19.80;99.90;;;;;;6216131;23;20012;-78
2022/06/02 02:36:04;;;;;;;30.02;21.98;;;19.70;99.90;;;;;;6215968;23;20425;-77
2022/06/02 02:38:34;;;;;;;35.88;24.60;;;19.70;99.90;;;;;;6215767;23;20380;-77
2022/06/02 02:41:05;;;;;;;34.20;24.85;;;19.80;99.90;;;;;;6216084;23;20468;-77
2022/06/02 02:43:39;;;;;;;32.47;24.30;;;19.80;99.90;;;;;;6216069;23;20004;-77
2022/06/02 02:46:18;;;;;;;29.83;22.58;;;19.70;99.90;;;;;;6216003;23;20417;-77
2022/06/02 02:48:54;;;;;;;31.17;23.65;;;19.70;99.90;;;;;;6216137;23;20477;-78
2022/06/02 02:51:49;;;;;;;31.35;23.80;;;19.70;99.90;;;;;;6215817;23;20015;-77
2022/06/02 02:54:41;;;;;;;29.42;23.27;;;19.70;99.90;;;;;;6164691;23;20012;-77
2022/06/02 02:57:24;;;;;;;32.97;24.35;;;19.70;99.90;;;;;;6214340;23;20004;-77
2022/06/02 03:00:12;;;;;;;33.70;24.50;;;19.70;99.90;;;;;;6215713;23;20002;-77
2022/06/02 03:03:02;;;;;;;30.20;23.23;;;19.80;99.90;;;;;;6215592;23;20001;-77
2022/06/02 03:05:43;;;;;;;31.73;23.73;;;19.70;99.90;;;;;;6214165;23;20403;-77
2022/06/02 03:08:17;;;;;;;36.70;25.20;;;19.70;99.90;;;;;;6215677;23;20004;-77
2022/06/02 03:10:46;;;;;;;32.22;24.70;;;19.60;99.90;;;;;;6215828;23;20011;-77
2022/06/02 03:13:32;;;;;;;31.63;23.88;;;19.70;99.90;;;;;;6215631;23;20008;-78
2022/06/02 03:16:06;;;;;;;35.63;24.75;;;19.60;99.90;;;;;;6215765;23;20008;-78
2022/06/02 03:18:50;;;;;;;32.10;24.00;;;19.70;99.90;;;;;;6215318;23;20349;-78
2022/06/02 03:21:43;;;;;;;32.92;23.30;;;19.70;99.90;;;;;;6215719;23;19997;-78
2022/06/02 03:24:30;;;;;;;33.08;24.55;;;19.60;99.90;;;;;;6215648;23;20020;-78
2022/06/02 03:27:37;;;;;;;33.35;23.23;;;19.60;99.90;;;;;;6215568;23;20007;-77
2022/06/02 03:30:23;;;;;;;35.13;26.33;;;19.60;99.90;;;;;;6172470;23;20444;-78
2022/06/02 03:33:05;;;;;;;33.20;24.80;;;19.50;99.90;;;;;;6213894;23;20004;-78
2022/06/02 03:35:40;;;;;;;35.17;24.65;;;19.50;99.90;;;;;;6215570;23;20004;-77
2022/06/02 03:38:11;;;;;;;29.90;24.10;;;19.50;99.90;;;;;;6215291;23;20425;-78
2022/06/02 03:41:09;;;;;;;34.00;25.38;;;19.60;99.90;;;;;;6215548;23;20071;-77
2022/06/02 03:43:42;;;;;;;36.47;25.55;;;19.50;99.90;;;;;;6215496;23;20007;-77
2022/06/02 03:46:29;;;;;;;35.78;25.92;;;19.50;99.90;;;;;;6215446;23;20076;-78
2022/06/02 03:49:21;;;;;;;33.90;25.77;;;19.50;99.90;;;;;;6215399;23;20074;-78
2022/06/02 03:52:14;;;;;;;35.88;27.23;;;19.50;99.90;;;;;;6215421;23;20033;-78
2022/06/02 03:54:58;;;;;;;34.75;26.23;;;19.50;99.90;;;;;;6215180;23;20453;-78
2022/06/02 03:57:31;;;;;;;34.28;24.92;;;19.50;99.90;;;;;;6215384;23;20007;-77
2022/06/02 04:00:08;;;;;;;31.48;24.55;;;19.50;99.90;;;;;;6214980;23;20483;-78
2022/06/02 04:02:39;;;;;;;34.17;25.10;;;19.60;99.90;;;;;;6215346;23;20008;-77
2022/06/02 04:05:23;;;;;;;36.20;26.27;;;19.60;99.90;;;;;;6215332;23;20051;-78
2022/06/02 04:07:52;;;;;;;35.65;26.95;;;19.60;99.90;;;;;;6213638;23;20012;-78
2022/06/02 04:10:38;;;;;;;31.20;24.70;;;19.60;99.90;;;;;;6215324;23;20007;-78
2022/06/02 04:13:38;;;;;;;31.40;24.98;;;19.60;99.90;;;;;;6215285;23;20072;-78
2022/06/02 04:16:15;;;;;;;32.50;25.50;;;19.60;99.90;;;;;;6215217;23;20436;-77
2022/06/02 04:20:34;;;;;;;38.40;26.52;;;19.60;99.90;;;;;;6214936;23;20506;-77
2022/06/02 04:22:12;;;;;;;31.83;24.95;;;19.50;99.90;;;;;;6215092;23;20004;-78
2022/06/02 04:24:57;;;;;;;35.20;26.23;;;19.50;99.90;;;;;;6214411;23;20425;-78
2022/06/02 04:27:35;;;;;;;33.22;25.48;;;19.50;99.90;;;;;;6215153;23;20009;-77
2022/06/02 04:30:33;;;;;;;36.70;26.25;;;19.50;99.90;;;;;;6215148;23;20000;-77
2022/06/02 04:33:16;;;;;;;33.28;25.50;;;19.70;99.90;;;;;;6215161;23;20005;-77
2022/06/02 04:35:47;;;;;;;37.03;25.90;;;19.60;99.90;;;;;;6215130;23;20083;-77
2022/06/02 04:38:27;;;;;;;35.33;25.67;;;19.60;99.90;;;;;;6213470;23;20004;-77
2022/06/02 04:41:09;;;;;;;36.28;25.67;;;19.60;99.90;;;;;;6214341;23;20286;-78
2022/06/02 04:44:03;;;;;;;34.90;25.25;;;19.70;99.90;;;;;;6215722;23;19999;-78
2022/06/02 04:47:03;;;;;;;35.80;24.63;;;19.70;99.90;;;;;;6217124;23;20072;-77
2022/06/02 04:49:59;;;;;;;38.72;26.88;;;19.70;99.90;;;;;;6217005;23;20009;-77
2022/06/02 04:52:40;;;;;;;35.60;26.27;;;19.80;99.90;;;;;;6217247;23;20001;-78
2022/06/02 04:55:36;;;;;;;33.60;25.13;;;19.80;99.90;;;;;;6217055;23;20047;-78
2022/06/02 04:58:17;;;;;;;35.80;26.50;;;19.90;99.90;;;;;;6215221;23;20139;-77
2022/06/02 05:01:02;;;;;;;38.63;26.60;;;19.90;99.90;;;;;;6217016;23;20313;-77
2022/06/02 05:03:53;;;;;;;36.53;28.08;;;19.90;99.90;;;;;;6215393;23;20008;-77
2022/06/02 05:06:45;;;;;;;36.65;25.08;;;20.00;99.90;;;;;;6217001;23;19996;-78
2022/06/02 05:09:31;;;;;;;36.55;25.02;;;20.00;99.90;;;;;;6216623;23;20001;-77
2022/06/02 05:12:02;;;;;;;36.92;26.55;;;20.00;99.90;;;;;;6216882;23;20080;-77
2022/06/02 05:14:31;;;;;;;32.50;25.17;;;20.10;99.90;;;;;;6216880;23;20000;-77
2022/06/02 05:16:57;;;;;;;38.20;25.52;;;20.10;99.90;;;;;;6216453;23;20079;-78
2022/06/02 05:19:43;;;;;;;36.53;24.95;;;20.10;99.90;;;;;;6216637;23;20441;-77
2022/06/02 05:22:24;;;;;;;37.38;25.17;;;20.10;99.90;;;;;;6189974;23;20481;-77
2022/06/02 05:25:18;;;;;;;36.40;24.77;;;20.20;99.90;;;;;;6216758;23;19996;-78
2022/06/02 05:28:16;;;;;;;35.70;24.25;;;20.30;99.90;;;;;;6216434;23;20001;-77
2022/06/02 05:31:15;;;;;;;35.10;24.95;;;20.30;99.90;;;;;;6216713;23;19997;-77
2022/06/02 05:33:58;;;;;;;35.80;25.75;;;20.40;99.90;;;;;;6216498;23;20004;-77
2022/06/02 05:36:46;;;;;;;34.22;24.10;;;20.40;99.90;;;;;;6216520;23;19992;-77
2022/06/02 05:39:12;;;;;;;35.25;23.23;;;20.50;99.90;;;;;;6189745;23;20441;-77
2022/06/02 05:41:48;;;;;;;31.67;23.35;;;20.50;99.90;;;;;;6216692;23;20004;-77
2022/06/02 05:44:22;;;;;;;30.65;23.52;;;20.60;99.90;;;;;;6216445;23;20001;-78
2022/06/02 05:47:21;;;;;;;33.10;24.23;;;20.70;99.90;;;;;;6216438;23;19997;-78
2022/06/02 05:50:06;;;;;;;31.98;23.55;;;20.80;99.90;;;;;;6216393;23;20027;-78
2022/06/02 05:53:02;;;;;;;32.85;23.95;;;20.80;99.90;;;;;;6189366;23;20012;-78
2022/06/02 05:55:33;;;;;;;30.58;23.52;;;20.90;99.90;;;;;;6189751;23;20384;-77
2022/06/02 05:58:12;;;;;;;35.17;26.02;;;21.00;99.90;;;;;;6216282;23;20244;-77
2022/06/02 06:01:15;;;;;;;32.42;24.17;;;21.00;99.90;;;;;;6189852;23;20057;-77
2022/06/02 06:04:12;;;;;;;31.50;23.95;;;21.00;99.90;;;;;;6189755;23;19993;-77
2022/06/02 06:06:57;;;;;;;34.58;24.67;;;21.10;99.90;;;;;;6216250;23;20001;-77
2022/06/02 06:09:32;;;;;;;34.17;24.73;;;21.20;99.90;;;;;;6216264;23;20510;-77
2022/06/02 06:12:25;;;;;;;38.58;26.33;;;21.20;99.90;;;;;;6216322;23;20012;-77
2022/06/02 06:15:23;;;;;;;32.97;23.75;;;21.30;99.90;;;;;;6216232;23;20332;-77
2022/06/02 06:18:04;;;;;;;36.80;24.67;;;21.40;99.90;;;;;;6216007;23;20139;-77
2022/06/02 06:20:58;;;;;;;33.22;24.40;;;21.40;99.90;;;;;;6189568;23;20008;-77
2022/06/02 06:23:59;;;;;;;36.33;24.55;;;21.50;99.90;;;;;;6203923;23;19997;-77
2022/06/02 06:26:59;;;;;;;34.63;24.75;;;21.50;99.90;;;;;;6211590;23;20456;-77
2022/06/02 06:29:48;;;;;;;34.13;24.52;;;21.60;99.90;;;;;;6216236;23;20054;-77
2022/06/02 06:32:27;;;;;;;34.47;23.75;;;21.80;99.90;;;;;;6216171;23;20000;-77
2022/06/02 06:35:17;;;;;;;35.53;25.25;;;21.80;99.90;;;;;;6216125;23;20011;-77
2022/06/02 06:38:02;;;;;;;32.53;24.73;;;21.80;99.90;;;;;;6216003;23;20100;-78
2022/06/02 06:40:38;;;;;;;37.65;25.15;;;21.90;99.90;;;;;;6215871;23;20008;-78
2022/06/02 06:43:19;;;;;;;38.72;26.08;;;21.90;99.90;;;;;;6216079;23;20001;-77
2022/06/02 06:45:47;;;;;;;33.72;25.00;;;21.90;99.90;;;;;;6215931;23;20325;-77
2022/06/02 06:48:24;;;;;;;34.17;24.17;;;22.00;99.90;;;;;;6215894;23;20425;-77
2022/06/02 06:51:03;;;;;;;37.20;24.33;;;22.00;99.90;;;;;;6215778;23;20030;-78
2022/06/02 06:53:41;;;;;;;32.45;24.30;;;22.00;99.90;;;;;;6215610;23;20005;-76
2022/06/02 06:56:44;;;;;;;41.60;24.63;;;22.10;99.90;;;;;;6214427;23;20004;-76
2022/06/02 06:59:25;;;;;;;37.65;23.38;;;22.10;99.90;;;;;;6195468;23;20009;-76
2022/06/02 07:02:06;;;;;;;35.28;25.17;;;22.20;99.90;;;;;;6215791;23;20003;-76
2022/06/02 07:04:50;;;;;;;32.42;25.08;;;22.20;99.90;;;;;;6215635;23;20000;-76
2022/06/02 07:07:48;;;;;;;39.58;25.33;;;22.30;99.90;;;;;;6215678;23;20079;-76
2022/06/02 07:10:26;;;;;;;38.90;24.13;;;22.30;99.90;;;;;;6153424;23;20378;-77
2022/06/02 07:13:01;;;;;;;36.72;26.23;;;22.40;99.90;;;;;;6214020;23;19996;-77
2022/06/02 07:15:50;;;;;;;35.83;25.42;;;22.40;99.90;;;;;;6214843;23;20020;-73
2022/06/02 07:18:35;;;;;;;36.67;24.83;;;22.40;99.90;;;;;;6214854;23;20020;-73
2022/06/02 07:21:22;;;;;;;37.85;24.73;;;22.40;99.90;;;;;;6215219;23;20079;-72
2022/06/02 07:23:56;;;;;;;35.03;25.45;;;22.50;99.90;;;;;;6188549;23;20127;-74
2022/06/02 07:26:43;;;;;;;32.55;24.83;;;22.50;99.90;;;;;;6215567;23;20146;-75
2022/06/02 07:29:26;;;;;;;35.25;24.60;;;22.50;99.90;;;;;;6215005;23;20001;-74
2022/06/02 07:32:16;;;;;;;38.75;25.88;;;22.60;99.90;;;;;;6215175;23;20001;-74
2022/06/02 07:35:00;;;;;;;43.65;26.85;;;22.60;99.90;;;;;;6215199;23;20139;-75
2022/06/02 07:37:43;;;;;;;39.05;25.48;;;22.70;99.90;;;;;;6187998;23;20008;-74
2022/06/02 07:40:33;;;;;;;37.88;23.77;;;22.70;99.90;;;;;;6188167;23;20469;-74
2022/06/02 07:43:28;;;;;;;36.22;25.25;;;22.70;99.90;;;;;;6188483;23;20087;-74
2022/06/02 07:46:06;;;;;;;40.58;24.42;;;22.70;99.90;;;;;;6171068;23;20008;-75
2022/06/02 07:49:10;;;;;;;42.15;24.42;;;22.80;99.90;;;;;;6188387;23;20094;-74
2022/06/02 07:51:45;;;;;;;39.22;26.05;;;22.80;99.90;;;;;;6168870;23;20008;-73
2022/06/02 07:54:33;;;;;;;40.92;26.45;;;22.90;99.90;;;;;;6215021;23;20004;-72
2022/06/02 07:57:04;;;;;;;35.42;25.13;;;22.90;99.90;;;;;;6214793;23;20008;-74
2022/06/02 08:00:00;;;;;;;40.58;26.35;;;23.00;99.90;;;;;;6214732;23;20333;-75
2022/06/02 08:02:48;;;;;;;39.40;26.25;;;23.00;99.90;;;;;;6215129;23;20017;-74
2022/06/02 08:05:35;;;;;;;34.92;26.10;;;23.10;99.90;;;;;;6215084;23;20536;-74
2022/06/02 08:08:39;;;;;;;37.03;25.95;;;23.10;99.90;;;;;;6214791;23;19997;-74
2022/06/02 08:11:19;;;;;;;36.45;26.58;;;23.30;99.90;;;;;;6093648;23;20009;-75
2022/06/02 08:14:09;;;;;;;38.67;26.45;;;23.30;99.90;;;;;;6204854;23;20001;-75
2022/06/02 08:16:44;;;;;;;39.67;26.55;;;23.40;99.90;;;;;;6214583;23;20000;-76
2022/06/02 08:19:34;;;;;;;40.72;24.98;;;23.40;99.90;;;;;;6214438;23;20008;-75
2022/06/02 08:22:03;;;;;;;45.60;26.83;;;23.50;99.90;;;;;;6214903;23;20004;-74
2022/06/02 08:24:38;;;;;;;35.88;24.13;;;23.60;99.90;;;;;;6214644;23;20447;-74
2022/06/02 08:27:15;;;;;;;33.58;24.58;;;23.60;99.90;;;;;;6214872;23;20362;-75
2022/06/02 08:29:44;;;;;;;36.53;25.17;;;23.70;99.90;;;;;;6214204;23;20001;-75
2022/06/02 08:32:28;;;;;;;36.95;25.25;;;23.70;99.90;;;;;;6214775;23;20364;-74
2022/06/02 08:35:19;;;;;;;40.92;28.23;;;23.70;99.90;;;;;;6187845;23;20432;-75
2022/06/02 08:37:51;;;;;;;37.50;25.27;;;23.80;99.90;;;;;;6197651;23;20445;-75
2022/06/02 08:40:30;;;;;;;39.25;26.02;;;23.80;99.90;;;;;;6214748;23;20012;-75
2022/06/02 08:43:07;;;;;;;42.75;27.33;;;23.80;99.90;;;;;;6188105;23;20005;-75
2022/06/02 08:45:54;;;;;;;43.08;26.73;;;23.90;99.90;;;;;;6214301;23;20009;-72
2022/06/02 08:48:56;;;;;;;34.40;25.17;;;24.00;99.90;;;;;;6214363;23;20038;-72
2022/06/02 08:51:27;;;;;;;43.08;27.52;;;24.10;99.90;;;;;;6214649;23;20499;-72
2022/06/02 08:54:33;;;;;;;41.13;26.92;;;24.20;99.90;;;;;;6214934;23;20012;-72
2022/06/02 08:57:15;;;;;;;37.70;27.15;;;24.20;99.90;;;;;;6214744;23;20425;-73
2022/06/02 09:00:07;;;;;;;40.20;27.80;;;24.20;99.90;;;;;;6214361;23;20554;-72
2022/06/02 09:02:42;;;;;;;39.03;26.75;;;24.20;99.90;;;;;;6193722;23;20100;-72
2022/06/02 09:05:32;;;;;;;35.72;24.17;;;24.20;99.90;;;;;;6214832;23;20072;-72
2022/06/02 09:08:12;;;;;;;38.60;24.95;;;24.20;99.90;;;;;;6214710;23;20309;-72
2022/06/02 09:11:15;;;;;;;42.50;25.50;;;24.40;99.90;;;;;;6214755;23;20012;-72
2022/06/02 09:14:17;;;;;;;47.30;28.10;;;24.60;99.90;;;;;;6214639;23;20004;-73
2022/06/02 09:17:07;;;;;;;37.63;25.67;;;24.60;99.90;;;;;;6214668;23;20003;-72
2022/06/02 09:19:35;;;;;;;40.30;27.23;;;24.60;99.90;;;;;;6180354;23;20017;-72
2022/06/02 09:22:10;;;;;;;40.25;26.05;;;24.60;99.90;;;;;;6214607;23;19996;-72
2022/06/02 09:25:04;;;;;;;41.70;27.92;;;24.60;99.90;;;;;;6214431;23;20369;-73
2022/06/02 09:27:35;;;;;;;37.75;26.90;;;24.70;99.90;;;;;;6188189;23;20005;-74
2022/06/02 09:30:12;;;;;;;35.63;26.30;;;24.60;99.90;;;;;;6216454;23;20455;-73
2022/06/02 09:32:50;;;;;;;43.72;29.23;;;24.60;99.90;;;;;;6216439;23;20001;-72
2022/06/02 09:35:41;;;;;;;39.20;27.63;;;24.70;99.90;;;;;;6216388;23;20004;-73
2022/06/02 09:38:35;;;;;;;50.13;28.70;;;24.80;99.90;;;;;;6189460;23;20008;-72
2022/06/02 09:41:23;;;;;;;40.20;26.65;;;24.80;99.90;;;;;;6216431;23;19996;-73
2022/06/02 09:44:01;;;;;;;38.58;26.17;;;24.90;99.90;;;;;;6216167;23;20011;-73
2022/06/02 09:46:48;;;;;;;32.80;25.67;;;24.90;99.90;;;;;;6189490;23;20010;-73
2022/06/02 09:49:57;;;;;;;38.13;26.90;;;25.00;99.90;;;;;;6216106;23;20004;-73
2022/06/02 09:52:53;;;;;;;33.20;24.27;;;25.10;99.90;;;;;;6094946;23;20423;-73
2022/06/02 09:55:40;;;;;;;34.65;25.20;;;25.20;99.90;;;;;;6215301;23;20014;-73
2022/06/02 09:58:30;;;;;;;36.53;24.92;;;25.30;99.90;;;;;;6215976;23;20008;-73
2022/06/02 10:01:19;;;;;;;33.30;25.02;;;25.30;99.90;;;;;;6189342;23;20309;-73
2022/06/02 10:04:03;;;;;;;34.00;24.88;;;25.40;99.90;;;;;;6216341;23;20333;-72
2022/06/02 10:07:06;;;;;;;36.47;23.13;;;25.50;99.90;;;;;;6216016;23;20005;-72
2022/06/02 10:09:59;;;;;;;33.42;22.50;;;25.60;99.90;;;;;;6215827;23;20476;-75
2022/06/02 10:13:00;;;;;;;33.92;24.67;;;25.70;99.90;;;;;;6216050;23;20004;-75
2022/06/02 10:15:40;;;;;;;31.13;21.65;;;25.70;99.90;;;;;;6215819;23;20059;-73
2022/06/02 10:18:44;;;;;;;26.33;20.02;;;25.90;99.90;;;;;;6215570;23;20040;-73
2022/06/02 10:21:39;;;;;;;29.45;20.67;;;25.90;99.90;;;;;;6183687;23;20032;-73
2022/06/02 10:24:30;;;;;;;29.05;19.83;;;25.90;99.90;;;;;;6216039;23;19997;-72
2022/06/02 10:27:31;;;;;;;25.58;18.55;;;26.10;99.90;;;;;;6189322;23;20005;-73
2022/06/02 10:30:22;;;;;;;24.35;15.38;;;26.10;99.90;;;;;;6215796;23;20001;-72
2022/06/02 10:32:56;;;;;;;21.98;15.90;;;26.20;99.80;;;;;;6215908;23;20055;-72
2022/06/02 10:35:51;;;;;;;19.98;13.13;;;26.20;99.90;;;;;;6215867;23;19996;-72
2022/06/02 10:38:26;;;;;;;22.98;14.82;;;26.30;99.90;;;;;;6215090;23;20485;-72
2022/06/02 10:41:29;;;;;;;18.13;14.82;;;26.40;99.90;;;;;;6215081;23;20001;-73
2022/06/02 10:43:55;;;;;;;19.77;15.70;;;26.40;99.90;;;;;;6215018;23;20001;-73
2022/06/02 10:47:09;;;;;;;21.02;15.40;;;26.60;99.90;;;;;;6215209;23;20007;-72
2022/06/02 10:49:34;;;;;;;21.23;15.20;;;26.70;99.90;;;;;;6215128;23;20028;-73
2022/06/02 10:52:24;;;;;;;19.50;14.38;;;26.90;99.90;;;;;;6214792;23;20004;-72
2022/06/02 10:55:11;;;;;;;23.90;16.08;;;27.00;99.70;;;;;;6214754;23;20028;-72
2022/06/02 10:57:58;;;;;;;22.42;15.38;;;27.20;99.90;;;;;;6214536;23;20008;-73
2022/06/02 11:00:49;;;;;;;16.38;14.65;;;27.30;99.90;;;;;;6214763;23;20308;-72
2022/06/02 11:03:34;;;;;;;20.42;14.63;;;27.30;99.90;;;;;;6215065;23;20000;-72
2022/06/02 11:06:03;;;;;;;20.70;14.95;;;27.50;99.90;;;;;;6188230;23;20008;-73
2022/06/02 11:08:56;;;;;;;22.65;16.05;;;27.40;99.90;;;;;;6214735;23;20001;-72
2022/06/02 11:12:07;;;;;;;23.90;13.98;;;27.40;99.90;;;;;;6188638;23;20008;-72
2022/06/02 11:14:52;;;;;;;24.13;15.95;;;27.70;99.90;;;;;;6184179;23;20012;-72
2022/06/02 11:18:06;;;;;;;18.75;15.05;;;27.80;99.90;;;;;;6213958;23;20027;-72
2022/06/02 11:21:02;;;;;;;20.27;15.48;;;27.90;98.90;;;;;;6214046;23;20440;-72
2022/06/02 11:24:02;;;;;;;20.52;11.35;;;28.00;98.20;;;;;;6214004;23;20441;-72
2022/06/02 11:26:36;;;;;;;18.48;11.68;;;28.20;99.90;;;;;;6213914;23;20004;-73
2022/06/02 11:29:21;;;;;;;16.23;10.25;;;28.20;96.50;;;;;;6213824;23;20436;-72
2022/06/02 11:32:28;;;;;;;21.17;9.75;;;28.20;97.20;;;;;;6213872;23;20000;-72
2022/06/02 11:35:13;;;;;;;15.57;11.20;;;28.30;96.90;;;;;;6145788;23;20083;-73
2022/06/02 11:38:13;;;;;;;18.00;11.57;;;28.40;97.50;;;;;;6188261;23;20000;-73
2022/06/02 11:41:02;;;;;;;14.38;9.15;;;28.40;97.90;;;;;;6215135;23;20005;-73
2022/06/02 11:43:34;;;;;;;14.65;9.90;;;28.60;99.60;;;;;;6188506;23;20128;-72
2022/06/02 11:46:24;;;;;;;10.00;8.60;;;28.70;98.50;;;;;;6215167;23;20306;-73
2022/06/02 11:49:26;;;;;;;16.08;9.45;;;29.00;98.30;;;;;;6215065;23;20012;-73
2022/06/02 11:52:19;;;;;;;10.15;9.15;;;29.10;97.30;;;;;;6214900;23;20007;-72
2022/06/02 11:55:16;;;;;;;16.15;11.38;;;29.20;96.90;;;;;;6215075;23;20001;-73
2022/06/02 11:57:48;;;;;;;14.40;9.00;;;28.80;94.40;;;;;;6214950;23;20062;-73
2022/06/02 12:00:55;;;;;;;14.32;8.23;;;28.90;94.10;;;;;;6214517;23;20035;-73
2022/06/02 12:03:33;;;;;;;16.70;10.77;;;29.10;95.00;;;;;;6188528;23;20332;-72
2022/06/02 12:06:14;;;;;;;13.27;10.27;;;29.10;94.50;;;;;;6215067;23;20066;-72
2022/06/02 12:09:10;;;;;;;17.95;10.13;;;29.00;94.80;;;;;;6188199;23;20336;-72
2022/06/02 12:12:23;;;;;;;11.82;9.45;;;29.20;95.20;;;;;;6215088;23;20028;-73
2022/06/02 12:15:27;;;;;;;13.35;9.20;;;29.30;95.60;;;;;;6161385;23;20009;-73
2022/06/02 12:18:32;;;;;;;10.02;8.50;;;29.60;95.60;;;;;;6214605;23;20132;-72
2022/06/02 12:21:06;;;;;;;12.27;8.15;;;29.80;95.70;;;;;;6215355;23;20009;-72
2022/06/02 12:23:53;;;;;;;12.02;7.28;;;30.00;96.20;;;;;;6214974;23;20026;-72
2022/06/02 12:26:37;;;;;;;12.25;8.18;;;30.20;95.90;;;;;;6214895;23;20005;-73
2022/06/02 12:29:28;;;;;;;14.82;9.30;;;30.40;96.40;;;;;;6214901;23;19997;-72
2022/06/02 12:32:05;;;;;;;10.23;8.27;;;30.40;94.10;;;;;;6214883;23;20299;-73
2022/06/02 12:35:24;;;;;;;12.32;8.30;;;30.10;95.00;;;;;;6188047;23;20000;-73
2022/06/02 12:38:12;;;;;;;11.70;8.60;;;29.80;95.40;;;;;;6093202;23;20006;-73
2022/06/02 12:41:05;;;;;;;9.80;8.90;;;29.90;94.80;;;;;;6214913;23;20016;-73
2022/06/02 12:43:57;;;;;;;16.05;9.18;;;30.10;95.20;;;;;;6214780;23;20001;-73
2022/06/02 12:46:51;;;;;;;11.57;8.80;;;30.40;94.90;;;;;;6168539;23;20005;-72
2022/06/02 12:49:43;;;;;;;11.15;10.00;;;30.60;94.00;;;;;;6214609;23;20001;-73
2022/06/02 12:52:30;;;;;;;15.27;8.85;;;30.50;93.00;;;;;;6215192;23;20079;-72
2022/06/02 12:55:29;;;;;;;13.90;9.43;;;30.40;92.90;;;;;;6214704;23;20047;-72
2022/06/02 12:58:41;;;;;;;11.90;8.38;;;30.40;93.50;;;;;;6214620;23;19997;-72
2022/06/02 13:01:26;;;;;;;20.23;9.43;;;30.60;94.40;;;;;;6214425;23;20001;-72
2022/06/02 13:04:13;;;;;;;11.95;8.00;;;30.30;93.30;;;;;;6216773;23;20047;-73
2022/06/02 13:07:05;;;;;;;8.75;7.82;;;30.30;94.30;;;;;;6216350;23;20008;-73
2022/06/02 13:09:37;;;;;;;;;;;30.40;95.10;;;;;;6217154;23;20027;-73
2022/06/02 13:12:14;;;;;;;12.20;8.38;;;30.50;94.90;;;;;;6216585;23;19922;-72
2022/06/02 13:15:07;;;;;;;12.05;8.05;;;30.60;94.50;;;;;;6216731;23;20498;-73
2022/06/02 13:18:06;;;;;;;13.35;8.60;;;30.40;93.20;;;;;;6215316;23;20032;-73
2022/06/02 13:20:56;;;;;;;9.57;8.40;;;30.20;92.80;;;;;;6215267;23;20008;-73
2022/06/02 13:23:39;;;;;;;12.80;8.60;;;29.90;93.30;;;;;;6216003;23;20008;-73
2022/06/02 13:26:42;;;;;;;10.30;8.07;;;29.80;93.00;;;;;;6216015;23;20435;-73
2022/06/02 13:29:13;;;;;;;9.43;8.25;;;29.90;93.30;;;;;;6216182;23;20421;-72
2022/06/02 13:31:47;;;;;;;14.75;8.68;;;30.10;94.00;;;;;;6216399;23;20051;-73
2022/06/02 13:34:40;;;;;;;13.50;8.43;;;30.20;92.10;;;;;;6189674;23;20296;-73
2022/06/02 13:37:37;;;;;;;8.82;7.90;;;30.30;91.30;;;;;;6216334;23;20121;-72
2022/06/02 13:40:21;;;;;;;9.25;8.27;;;30.50;91.70;;;;;;6214789;23;20008;-72
2022/06/02 13:43:08;;;;;;;10.75;7.60;;;30.60;92.10;;;;;;6188105;23;20000;-72
2022/06/02 13:46:18;;;;;;;10.55;7.97;;;30.90;91.50;;;;;;6214686;23;20072;-72
2022/06/02 13:49:06;;;;;;;12.52;7.93;;;30.90;90.60;;;;;;6214585;23;20001;-72
2022/06/02 13:51:49;;;;;;;7.72;6.75;;;31.10;91.10;;;;;;6214698;23;20047;-73
2022/06/02 13:57:56;;;;;;;8.63;7.32;;;31.50;90.60;;;;;;6216200;23;20015;-72
2022/06/02 14:00:46;;;;;;;15.55;8.18;;;31.50;89.20;;;;;;6165467;23;20332;-72
2022/06/02 14:03:21;;;;;;;12.15;6.90;;;31.10;88.20;;;;;;6216151;23;20004;-72
2022/06/02 14:05:51;;;;;;;12.15;6.95;;;31.00;89.50;;;;;;6214443;23;20098;-73
2022/06/02 14:08:51;;;;;;;9.90;7.10;;;30.90;90.90;;;;;;6216282;23;20004;-73
2022/06/02 14:11:23;;;;;;;11.95;7.68;;;31.10;91.40;;;;;;6216115;23;20012;-73